createdAt,value
2022-08-12T00:04:33.687Z,8.15
2022-08-12T00:09:55.166Z,8.75
2022-08-12T00:15:17.775Z,9.27
2022-08-12T00:20:39.007Z,10.93
2022-08-12T00:26:23.747Z,7.43
2022-08-12T00:31:44.776Z,7.90
2022-08-12T00:37:13.044Z,10.52
2022-08-12T00:42:19.933Z,13.85
2022-08-12T00:47:26.092Z,18.77
2022-08-12T00:52:29.970Z,8.90
2022-08-12T00:57:36.754Z,7.15
2022-08-12T01:02:46.512Z,11.40
2022-08-12T01:08:08.750Z,8.00
2022-08-12T01:13:19.881Z,7.57
2022-08-12T01:18:28.841Z,16.02
2022-08-12T01:23:57.675Z,12.27
2022-08-12T01:29:04.219Z,10.23
2022-08-12T01:34:28.615Z,8.13
2022-08-12T01:39:35.540Z,8.75
2022-08-12T01:44:41.678Z,6.85
2022-08-12T01:50:05.330Z,5.47
2022-08-12T01:55:10.459Z,37.65
2022-08-12T02:00:19.168Z,7.20
2022-08-12T02:05:56.045Z,7.03
2022-08-12T02:11:18.930Z,9.02
2022-08-12T02:16:49.561Z,8.48
2022-08-12T02:22:04.917Z,12.52
2022-08-12T02:27:10.632Z,42.50
2022-08-12T02:32:17.630Z,81.22
2022-08-12T02:37:22.465Z,43.70
2022-08-12T02:42:30.194Z,136.07
2022-08-12T02:47:59.708Z,122.88
2022-08-12T02:53:05.284Z,97.15
2022-08-12T02:58:12.323Z,88.57
2022-08-12T03:03:22.655Z,111.07
2022-08-12T03:08:33.117Z,51.75
2022-08-12T03:13:43.022Z,25.30
2022-08-12T03:18:49.970Z,42.90
2022-08-12T03:23:55.730Z,48.83
2022-08-12T03:29:01.436Z,42.35
2022-08-12T03:34:08.627Z,41.92
2022-08-12T03:39:35.206Z,54.13
2022-08-12T03:45:00.670Z,27.58
2022-08-12T03:50:25.727Z,91.25
2022-08-12T03:55:49.612Z,25.73
2022-08-12T04:00:56.824Z,78.20
2022-08-12T04:06:03.426Z,35.78
2022-08-12T04:16:29.962Z,112.63
2022-08-12T04:21:36.326Z,21.45
2022-08-12T04:26:45.880Z,35.70
2022-08-12T04:31:50.820Z,30.98
2022-08-12T04:36:55.864Z,33.45
2022-08-12T04:42:01.774Z,38.72
2022-08-12T04:47:12.584Z,34.08
2022-08-12T04:52:19.726Z,29.08
2022-08-12T04:57:23.370Z,35.03
2022-08-12T05:02:27.328Z,39.92
2022-08-12T05:07:34.304Z,49.75
2022-08-12T05:12:58.588Z,23.75
2022-08-12T05:18:16.791Z,32.90
2022-08-12T05:23:36.343Z,26.75
2022-08-12T05:28:44.044Z,38.50
2022-08-12T05:33:51.187Z,31.85
2022-08-12T05:39:00.317Z,53.28
2022-08-12T05:44:06.558Z,53.85
2022-08-12T05:49:12.714Z,45.33
2022-08-12T05:54:35.335Z,46.15
2022-08-12T05:59:44.374Z,42.15
2022-08-12T06:04:48.358Z,34.10
2022-08-12T06:09:53.378Z,31.83
2022-08-12T06:15:00.235Z,33.60
2022-08-12T06:20:26.481Z,37.45
2022-08-12T06:25:30.626Z,23.70
2022-08-12T06:30:39.174Z,22.42
2022-08-12T06:35:49.211Z,21.90
2022-08-12T06:41:14.706Z,11.07
2022-08-12T06:46:19.640Z,10.38
2022-08-12T06:51:24.726Z,9.55
2022-08-12T06:57:01.917Z,10.77
2022-08-12T07:06:59.215Z,13.15
2022-08-12T07:12:06.805Z,11.00
2022-08-12T07:17:12.975Z,12.57
2022-08-12T07:22:20.625Z,11.32
2022-08-12T07:27:27.579Z,12.13
2022-08-12T07:32:31.662Z,9.93
2022-08-12T07:37:41.647Z,11.15
2022-08-12T07:42:47.110Z,11.43
2022-08-12T07:52:56.491Z,14.75
2022-08-12T07:58:02.803Z,11.55
2022-08-12T08:03:08.704Z,11.55
2022-08-12T08:08:19.843Z,12.85
2022-08-12T08:13:27.720Z,11.50
2022-08-12T08:18:33.232Z,17.95
2022-08-12T08:23:56.147Z,12.77
2022-08-12T08:29:02.602Z,12.40
2022-08-12T08:34:33.641Z,16.95
2022-08-12T08:39:31.983Z,18.70
2022-08-12T08:44:39.675Z,22.17
2022-08-12T08:49:43.438Z,17.35
2022-08-12T08:54:47.732Z,20.23
2022-08-12T08:59:52.751Z,17.73
2022-08-12T09:10:31.126Z,22.55
2022-08-12T09:15:39.117Z,14.77
2022-08-12T09:20:50.734Z,18.67
2022-08-12T09:25:55.038Z,15.02
2022-08-12T09:31:01.158Z,17.23
2022-08-12T09:36:05.787Z,19.98
2022-08-12T09:42:33.815Z,23.37
2022-08-12T09:46:35.020Z,28.65
2022-08-12T09:51:43.386Z,27.13
2022-08-12T09:57:01.579Z,26.13
2022-08-12T10:02:45.496Z,23.30
2022-08-12T10:07:40.434Z,25.20
2022-08-12T10:13:12.584Z,22.85
2022-08-12T10:18:19.636Z,28.42
2022-08-12T10:23:39.399Z,23.13
2022-08-12T10:30:37.060Z,22.10
2022-08-12T10:34:36.610Z,23.25
2022-08-12T10:40:01.576Z,19.40
2022-08-12T10:45:09.722Z,21.60
2022-08-12T10:50:35.855Z,17.75
2022-08-12T10:55:46.224Z,16.52
2022-08-12T11:01:25.586Z,16.45
2022-08-12T11:07:06.906Z,20.75
2022-08-12T11:12:35.593Z,18.15
2022-08-12T11:17:34.712Z,16.88
2022-08-12T11:22:38.968Z,15.23
2022-08-12T11:27:42.952Z,22.33
2022-08-12T11:32:47.114Z,13.57
2022-08-12T11:37:59.069Z,13.60
2022-08-12T11:43:19.969Z,10.00
2022-08-12T11:48:27.006Z,13.40
2022-08-12T11:53:58.282Z,8.52
2022-08-12T12:02:01.175Z,9.38
2022-08-12T12:04:28.803Z,8.40
2022-08-12T12:09:53.615Z,17.55
2022-08-12T12:15:03.167Z,10.70
2022-08-12T12:20:13.046Z,7.00
2022-08-12T12:25:19.840Z,9.07
2022-08-12T12:30:30.168Z,6.60
2022-08-12T12:36:17.042Z,5.97
2022-08-12T12:41:16.228Z,8.50
2022-08-12T12:46:20.966Z,6.55
2022-08-12T12:51:48.567Z,6.38
2022-08-12T12:56:54.552Z,7.18
2022-08-12T13:02:08.282Z,6.63
2022-08-12T13:07:12.375Z,6.72
2022-08-12T13:12:18.027Z,4.38
2022-08-12T13:17:24.497Z,4.28
2022-08-12T13:22:49.041Z,4.85
2022-08-12T13:27:58.319Z,4.78
2022-08-12T13:33:03.512Z,10.13
2022-08-12T13:38:10.381Z,10.07
2022-08-12T13:43:41.316Z,5.45
2022-08-12T13:48:45.321Z,9.15
2022-08-12T13:53:58.395Z,6.85
2022-08-12T13:59:08.005Z,7.20
2022-08-12T14:04:12.654Z,7.68
2022-08-12T14:09:18.278Z,9.50
2022-08-12T14:14:25.244Z,7.00
2022-08-12T14:19:33.091Z,7.18
2022-08-12T14:24:42.517Z,5.00
2022-08-12T14:30:04.444Z,5.20
2022-08-12T14:35:12.684Z,8.27
2022-08-12T14:40:18.227Z,5.50
2022-08-12T14:45:24.754Z,7.30
2022-08-12T14:52:07.892Z,7.07
2022-08-12T15:01:42.550Z,14.02
2022-08-12T15:06:52.490Z,6.75
2022-08-12T15:12:03.074Z,9.07
2022-08-12T15:17:09.362Z,19.52
2022-08-12T15:22:35.901Z,6.95
2022-08-12T15:28:05.127Z,6.22
2022-08-12T15:33:12.825Z,8.23
2022-08-12T15:38:21.250Z,7.10
2022-08-12T15:43:35.538Z,9.88
2022-08-12T15:48:51.686Z,9.68
2022-08-12T15:54:33.667Z,11.07
2022-08-12T15:59:51.434Z,6.82
2022-08-12T16:04:56.543Z,7.05
2022-08-12T16:10:06.664Z,7.85
2022-08-12T16:15:13.509Z,7.00
2022-08-12T16:20:22.261Z,17.15
2022-08-12T16:26:03.234Z,7.95
2022-08-12T16:31:03.095Z,9.55
2022-08-12T16:36:18.780Z,10.43
2022-08-12T16:41:23.694Z,13.57
2022-08-12T16:46:33.344Z,9.32
2022-08-12T16:51:41.751Z,7.97
2022-08-12T16:56:57.358Z,8.00
2022-08-12T17:02:02.564Z,8.98
2022-08-12T17:07:15.531Z,7.97
2022-08-12T17:12:20.242Z,12.70
2022-08-12T17:17:26.358Z,8.75
2022-08-12T17:22:46.641Z,13.32
2022-08-12T17:27:56.989Z,12.40
2022-08-12T17:33:02.859Z,14.60
2022-08-12T17:38:13.490Z,11.75
2022-08-12T17:43:57.757Z,10.75
2022-08-12T17:48:54.852Z,19.13
2022-08-12T17:54:12.499Z,9.52
2022-08-12T17:59:19.311Z,12.60
2022-08-12T18:05:03.175Z,14.98
2022-08-12T18:10:09.375Z,12.23
2022-08-12T18:15:26.671Z,29.13
2022-08-12T18:20:45.050Z,7.20
2022-08-12T18:31:23.938Z,13.98
2022-08-12T18:36:31.693Z,10.20
2022-08-12T18:41:37.532Z,8.27
2022-08-12T18:46:55.263Z,9.90
2022-08-12T18:52:04.392Z,8.93
2022-08-12T18:57:16.776Z,9.57
2022-08-12T19:02:40.396Z,11.50
2022-08-12T19:07:59.974Z,9.80
2022-08-12T19:13:25.216Z,13.68
2022-08-12T19:18:36.968Z,12.23
2022-08-12T19:23:43.811Z,12.32
2022-08-12T19:28:49.428Z,12.95
2022-08-12T19:34:25.449Z,23.15
2022-08-12T19:39:23.076Z,19.08
2022-08-12T19:44:30.799Z,24.25
2022-08-12T19:49:36.049Z,16.05
2022-08-12T19:54:44.065Z,15.43
2022-08-12T20:00:03.462Z,11.30
2022-08-12T20:06:03.146Z,14.23
2022-08-12T20:10:36.320Z,16.85
2022-08-12T20:15:45.115Z,16.17
2022-08-12T20:20:49.284Z,10.85
2022-08-12T20:26:04.063Z,10.73
2022-08-12T20:31:17.629Z,13.80
2022-08-12T20:36:41.151Z,11.77
2022-08-12T20:41:50.969Z,9.30
2022-08-12T20:46:58.358Z,8.48
2022-08-12T20:52:02.635Z,10.95
2022-08-12T20:57:10.340Z,14.38
2022-08-12T21:02:15.638Z,9.35
2022-08-12T21:07:20.382Z,10.05
2022-08-12T21:12:34.058Z,9.50
2022-08-12T21:18:09.349Z,11.52
2022-08-12T21:23:05.966Z,9.52
2022-08-12T21:28:10.007Z,7.53
2022-08-12T21:33:18.453Z,9.13
2022-08-12T21:38:34.405Z,8.52
2022-08-12T21:43:44.433Z,10.82
2022-08-12T21:48:53.272Z,5.88
2022-08-12T21:54:07.141Z,9.60
2022-08-12T21:59:14.943Z,7.82
2022-08-12T22:04:38.427Z,12.80
2022-08-12T22:09:43.419Z,10.77
2022-08-12T22:19:52.726Z,12.70
2022-08-12T22:24:58.587Z,17.73
2022-08-12T22:30:20.147Z,10.77
2022-08-12T22:35:56.624Z,16.98
2022-08-12T22:41:00.829Z,19.95
2022-08-12T22:46:23.224Z,17.88
2022-08-12T22:52:00.352Z,20.67
2022-08-12T22:56:59.123Z,21.15
2022-08-12T23:02:07.719Z,19.33
2022-08-12T23:07:16.512Z,19.02
2022-08-12T23:12:34.077Z,20.80
2022-08-12T23:17:41.814Z,19.48
2022-08-12T23:23:02.624Z,23.33
2022-08-12T23:28:30.071Z,19.42
2022-08-12T23:34:01.494Z,19.20
2022-08-12T23:39:02.050Z,20.10
2022-08-12T23:44:07.293Z,19.25
2022-08-12T23:49:55.815Z,18.38
2022-08-12T23:54:44.286Z,16.70
2022-08-12T23:59:55.383Z,16.35
